Nearby METAR Reports

 

CYYJ - Victoria Intl Ar, British Columbia, Canada
Distance from station: N 6km
Updated: 18/09/2021 00:00
Light rain, Overcast
Light rain, Overcast
 Wind from SW
Wind: SW 19 km/h
Temperature: 15°C
Dew Point: 14°C
Humidity: 94%
Barometer: 998.6 hPa
Summary: Light rain
Clouds: Overcast
Visibility: 19 km
Cloud details: Overcast 2774 m
2021/09/18 07:00 CYYJ 180700Z 23010KT 12SM -RA OVC091 15/14 A2949 RMK NS8 SLP987 DENSITY ALT 600FT
CWKH - Malahat (autob), British Columbia, Canada
Distance from station: WSW 10km
Updated: 18/09/2021 00:00

 
Temperature: 12°C
Dew Point: 11°C
Humidity: 94%
2021/09/18 07:00 CWKH 180700Z AUTO 12/11 RMK AO1 6PAST HR 1007 SLP981 P0006 T01170112 50016
 
CWPF - Esquimalt Metoc, British Columbia, Canada
Distance from station: S 18km
Updated: 18/09/2021 00:45

 Wind from WSW
Wind: WSW 24 km/h
Temperature: 14°C
Dew Point: 12°C
Humidity: 88%
2021/09/18 07:45 CWPF 180745Z AUTO 24013KT 14/12 RMK AO1 PK WND 23019/0722 SLP997 T01420119 51012
CWYJ - Victoria Univ, British Columbia, Canada
Distance from station: SSE 18km
Updated: 18/09/2021 00:00

 Wind from WSW
Wind: WSW 6 km/h
Temperature: 14°C
Dew Point: 13°C
Humidity: 94%
2021/09/18 07:00 CWYJ 180700Z AUTO 24003KT 14/13 RMK AO1 5PAST HR 0005 SLP995 P0006 T01360133 50015
 
CYWH - Victoria Harbour, British Columbia, Canada
Distance from station: S 20km
Updated: 17/09/2021 21:00
NOT Current
Light rain, Overcast
Light rain, Overcast
 Wind from WSW
Wind: WSW 22 km/h, Gust: 31 km/h
Temperature: 15°C
Dew Point: 13°C
Humidity: 88%
Barometer: 998.6 hPa
Summary: Light rain
Clouds: Overcast
Visibility: 11 km
Cloud details: Partly cloudy 457 m
Overcast 1676 m
2021/09/18 04:00 CYWH 180400Z 24012G17KT 7SM -RA SCT015 OVC055 15/13 A2949 RMK SC4SC4 /LAST STFD OBS/NEXT 181300UTC PRESRR SLP989 DENSITY ALT 500FT
CWLM - Victoria (autob), British Columbia, Canada
Distance from station: SSE 21km
Updated: 18/09/2021 00:00

 Wind from W
Wind: W 19 km/h
Temperature: 13°C
Dew Point: 12°C
Humidity: 94%
2021/09/18 07:00 CWLM 180700Z AUTO 26010KT 13/12 RMK AO1 4PAST HR 1006 PK WND 26022/0600 SLP994 P0005 T01330123 50014
 
KFHR - Friday Harbor, Washington, USA
Distance from station: ESE 30km
Updated: 17/09/2021 23:53
Light rain, Overcast
Light rain, Overcast
 Wind from SW
Wind: SW 9 km/h
Temperature: 14°C
Dew Point: 13°C
Humidity: 94%
Barometer: 999.7 hPa
Summary: Light rain
Clouds: Overcast
Visibility: 16 km
Cloud details: Overcast 2438 m
2021/09/18 06:53 KFHR 180653Z AUTO 22005KT 10SM -RA OVC080 14/13 A2952 RMK AO2 SLP998 P0006 T01390128 TSNO
CWQK - Race Rocks Autob, British Columbia, Canada
Distance from station: SSW 34km
Updated: 18/09/2021 00:00

 Wind from W
Wind: W 31 km/h
Temperature: 14°C
Dew Point: 13°C
Humidity: 94%
2021/09/18 07:00 CWQK 180700Z AUTO 28017KT 14/13 RMK AO1 PK WND 28022/0600 SLP996 T01350132 51011
 
CWEZ - Saturna Isl (map, British Columbia, Canada
Distance from station: NE 35km
Updated: 18/09/2021 00:00

 Wind from SSW
Wind: SSW 28 km/h
Temperature: 12°C
Dew Point: 12°C
Humidity: 100%
2021/09/18 07:00 CWEZ 180700Z AUTO 21015KT 12/12 RMK AO1 0PAST HR 0011 PK WND 20019/0657 SLP985 P0012 T01230116 50030
KORS - Eastsound/Orcas, Washington, USA
Distance from station: ENE 39km
Updated: 18/09/2021 00:35
Light rain, Overcast
Light rain, Overcast
 Wind from S
Wind: S 11 km/h, Gust: 20 km/h
Temperature: 14°C
Dew Point: 14°C
Humidity: 100%
Barometer: 999.3 hPa
Summary: Light rain
Clouds: Overcast
Visibility: 14 km
Cloud details: Few Clouds 1524 m
Overcast 1981 m
2021/09/18 07:35 KORS 180735Z AUTO 17006G11KT 9SM -RA FEW050 OVC065 14/14 A2951 RMK AO2
 
CWSP - Sheringham Autob, British Columbia, Canada
Distance from station: WSW 43km
Updated: 17/09/2021 12:00
NOT Current

 Wind from ESE
Wind: ESE 6 km/h
Temperature: 10°C
Dew Point: 10°C
Humidity: 100%
2021/09/17 19:00 CWSP 171900Z AUTO 11003KT 10/10 RMK AO1 8PAST HR 8030 SLP022 P0015 T00950101 50038